Time;durP1;ratioP1;P1;durP2;ratioP2;P2;SDS_P1;SDS_P2;PMS_P1;PMS_P2;Temp;Humidity;BMP_temperature;BMP_pressure;BME280_temperature;BME280_humidity;BME280_pressure;Samples;Min_cycle;Max_cycle;Signal;HPM_P1;HPM_P2
2022/04/26 03:37:12;;;;;;;13.35;10.18;;;;;;;;;;5074385;28;20051;-25
2022/04/26 03:39:38;;;;;;;13.60;10.20;;;;;;;;;;5074190;28;20040;-26
2022/04/26 03:42:04;;;;;;;17.90;10.07;;;;;;;;;;5073901;28;20039;-26
2022/04/26 03:44:30;;;;;;;11.50;9.27;;;;;;;;;;5073822;28;20528;-27
2022/04/26 03:46:57;;;;;;;14.25;10.23;;;;;;;;;;5073948;28;20044;-25
2022/04/26 03:49:23;;;;;;;14.05;10.00;;;;;;;;;;5073907;28;20409;-25
2022/04/26 03:51:52;;;;;;;13.68;9.48;;;;;;;;;;5074083;28;20104;-26
2022/04/26 03:54:19;;;;;;;12.25;9.82;;;;;;;;;;5073928;28;20086;-28
2022/04/26 03:56:45;;;;;;;17.13;10.15;;;;;;;;;;5072475;28;20048;-25
2022/04/26 03:59:11;;;;;;;16.02;10.75;;;;;;;;;;5072875;28;20127;-25
2022/04/26 04:01:37;;;;;;;15.18;10.02;;;;;;;;;;5072922;28;20049;-25
2022/04/26 04:04:03;;;;;;;15.45;10.38;;;;;;;;;;5073621;28;20044;-28
2022/04/26 04:06:29;;;;;;;15.13;10.55;;;;;;;;;;5073468;28;20486;-25
2022/04/26 04:08:55;;;;;;;15.98;10.32;;;;;;;;;;5073557;28;20456;-25
2022/04/26 04:11:21;;;;;;;14.52;9.85;;;;;;;;;;5073559;28;20420;-25
2022/04/26 04:13:48;;;;;;;14.80;9.57;;;;;;;;;;5073066;28;20040;-25
2022/04/26 04:16:14;;;;;;;17.67;10.02;;;;;;;;;;5073397;28;20048;-25
2022/04/26 04:21:24;;;;;;;12.57;9.77;;;;;;;;;;5071994;28;20056;-26
2022/04/26 04:23:50;;;;;;;15.50;9.88;;;;;;;;;;5055001;28;20124;-26
2022/04/26 04:26:17;;;;;;;16.33;10.20;;;;;;;;;;5072925;28;20037;-26
2022/04/26 04:28:43;;;;;;;14.32;9.93;;;;;;;;;;5073128;28;20041;-25
2022/04/26 04:31:10;;;;;;;15.95;9.88;;;;;;;;;;5071289;28;20045;-24
2022/04/26 04:33:36;;;;;;;13.90;9.07;;;;;;;;;;5072400;28;20479;-25
2022/04/26 04:36:03;;;;;;;17.88;10.02;;;;;;;;;;5054684;28;20098;-25
2022/04/26 04:38:29;;;;;;;16.75;10.13;;;;;;;;;;5072805;28;20047;-25
2022/04/26 04:40:55;;;;;;;17.90;9.90;;;;;;;;;;5072742;28;20464;-27
2022/04/26 04:43:21;;;;;;;11.13;8.73;;;;;;;;;;5072077;28;20097;-25
2022/04/26 04:45:47;;;;;;;15.70;9.18;;;;;;;;;;5060204;28;20041;-26
2022/04/26 04:48:14;;;;;;;13.52;8.73;;;;;;;;;;5038733;28;20040;-25
2022/04/26 04:50:40;;;;;;;16.65;9.18;;;;;;;;;;5072497;28;20123;-25
2022/04/26 04:53:06;;;;;;;13.25;9.43;;;;;;;;;;5072353;28;20036;-25
2022/04/26 04:55:32;;;;;;;13.85;9.40;;;;;;;;;;5066307;28;20080;-25
2022/04/26 04:57:58;;;;;;;14.98;8.90;;;;;;;;;;5052297;28;20037;-25
2022/04/26 05:00:25;;;;;;;12.38;8.77;;;;;;;;;;5052363;28;20044;-25
2022/04/26 05:02:51;;;;;;;13.93;9.32;;;;;;;;;;5052545;28;20163;-25
2022/04/26 05:05:17;;;;;;;16.02;8.60;;;;;;;;;;5052516;28;20068;-26
2022/04/26 05:07:43;;;;;;;16.88;9.25;;;;;;;;;;5052317;28;20045;-25
2022/04/26 05:10:09;;;;;;;15.27;9.27;;;;;;;;;;5033801;28;20037;-25
2022/04/26 05:12:35;;;;;;;14.98;8.38;;;;;;;;;;5052089;28;20395;-26
2022/04/26 05:15:01;;;;;;;13.52;8.32;;;;;;;;;;5054912;28;20043;-26
2022/04/26 05:17:28;;;;;;;10.93;8.52;;;;;;;;;;5071448;28;20044;-27
2022/04/26 05:19:54;;;;;;;13.65;8.55;;;;;;;;;;5071364;28;20043;-26
2022/04/26 05:22:20;;;;;;;13.73;9.23;;;;;;;;;;5071676;28;20044;-26
2022/04/26 05:24:59;;;;;;;14.52;8.50;;;;;;;;;;5072006;28;20072;-26
2022/04/26 05:27:26;;;;;;;13.18;9.20;;;;;;;;;;5071795;28;20489;-26
2022/04/26 05:29:52;;;;;;;12.27;9.27;;;;;;;;;;5071589;28;20540;-26
2022/04/26 05:32:19;;;;;;;16.27;8.60;;;;;;;;;;5071739;28;20401;-26
2022/04/26 05:34:46;;;;;;;15.45;8.93;;;;;;;;;;5071878;28;20119;-26
2022/04/26 05:37:12;;;;;;;15.77;7.68;;;;;;;;;;5071650;28;20502;-25
2022/04/26 05:39:38;;;;;;;14.55;8.88;;;;;;;;;;5070772;28;20402;-25
2022/04/26 05:42:04;;;;;;;14.48;8.77;;;;;;;;;;5070794;28;20448;-30
2022/04/26 05:44:30;;;;;;;17.20;9.98;;;;;;;;;;5071367;28;20064;-30
2022/04/26 05:46:56;;;;;;;14.48;8.88;;;;;;;;;;5070167;28;20398;-29
2022/04/26 05:49:22;;;;;;;14.18;8.95;;;;;;;;;;5070917;28;20043;-29
2022/04/26 05:51:49;;;;;;;16.55;9.75;;;;;;;;;;5070785;28;20044;-28
2022/04/26 05:54:15;;;;;;;15.55;9.45;;;;;;;;;;5071245;28;20097;-29
2022/04/26 05:56:42;;;;;;;13.70;8.55;;;;;;;;;;5070792;28;20042;-29
2022/04/26 05:59:08;;;;;;;15.73;8.70;;;;;;;;;;5070205;28;20546;-28
2022/04/26 06:01:34;;;;;;;12.70;8.05;;;;;;;;;;5070150;28;20032;-28
2022/04/26 06:04:00;;;;;;;17.85;9.15;;;;;;;;;;5071069;28;20536;-31
2022/04/26 06:06:27;;;;;;;17.85;9.02;;;;;;;;;;5069540;28;20041;-31
2022/04/26 06:08:53;;;;;;;14.77;8.80;;;;;;;;;;5052702;28;20044;-29
2022/04/26 06:11:19;;;;;;;14.77;8.48;;;;;;;;;;5069568;28;20040;-29
2022/04/26 06:13:45;;;;;;;14.63;7.68;;;;;;;;;;5060814;28;20405;-29
2022/04/26 06:16:12;;;;;;;11.25;7.65;;;;;;;;;;5062375;28;20448;-30
2022/04/26 06:18:38;;;;;;;12.48;7.80;;;;;;;;;;5062337;28;20464;-28
2022/04/26 06:21:04;;;;;;;15.95;8.98;;;;;;;;;;5065935;28;20036;-29
2022/04/26 06:23:30;;;;;;;13.27;7.47;;;;;;;;;;5070739;28;20040;-30
2022/04/26 06:25:56;;;;;;;14.02;7.28;;;;;;;;;;5070240;28;20044;-30
2022/04/26 06:28:22;;;;;;;12.18;7.53;;;;;;;;;;5070722;28;20044;-29
2022/04/26 06:30:48;;;;;;;15.63;7.65;;;;;;;;;;5069999;28;20483;-30
2022/04/26 06:33:14;;;;;;;17.98;7.55;;;;;;;;;;5063774;28;20045;-30
2022/04/26 06:35:40;;;;;;;14.55;7.68;;;;;;;;;;5070602;28;20509;-29
2022/04/26 06:38:06;;;;;;;13.90;7.80;;;;;;;;;;5069836;28;20067;-30
2022/04/26 06:40:32;;;;;;;12.35;7.00;;;;;;;;;;5070215;28;20386;-29
2022/04/26 06:42:58;;;;;;;10.20;7.22;;;;;;;;;;5069982;28;20048;-30
2022/04/26 06:45:24;;;;;;;9.30;6.53;;;;;;;;;;5070183;28;20037;-30
2022/04/26 06:47:50;;;;;;;14.25;7.60;;;;;;;;;;5069990;28;20087;-29
2022/04/26 06:50:17;;;;;;;15.50;7.35;;;;;;;;;;5069962;28;20047;-31
2022/04/26 06:52:43;;;;;;;12.27;7.18;;;;;;;;;;5069078;28;20040;-29
2022/04/26 06:55:09;;;;;;;13.60;7.38;;;;;;;;;;5070529;28;20129;-29
2022/04/26 06:57:36;;;;;;;14.13;6.90;;;;;;;;;;5069955;28;20551;-30
2022/04/26 07:00:04;;;;;;;14.40;7.10;;;;;;;;;;5070671;28;20453;-30
2022/04/26 07:02:30;;;;;;;12.07;6.50;;;;;;;;;;5069765;28;20040;-29
2022/04/26 07:04:56;;;;;;;12.23;6.10;;;;;;;;;;5069816;28;20052;-30
2022/04/26 07:07:23;;;;;;;12.98;6.57;;;;;;;;;;5072644;28;20486;-28
2022/04/26 07:09:49;;;;;;;12.88;6.82;;;;;;;;;;5073819;28;20040;-28
2022/04/26 07:12:15;;;;;;;8.73;6.25;;;;;;;;;;5072903;28;20493;-29
2022/04/26 07:14:42;;;;;;;9.63;6.00;;;;;;;;;;5073457;28;20452;-29
2022/04/26 07:17:08;;;;;;;11.18;6.80;;;;;;;;;;5073146;28;20051;-29
2022/04/26 07:19:35;;;;;;;8.05;5.47;;;;;;;;;;5073747;28;20040;-28
2022/04/26 07:22:03;;;;;;;7.18;5.72;;;;;;;;;;5072815;28;20049;-29
2022/04/26 07:24:29;;;;;;;9.85;6.20;;;;;;;;;;5073586;28;20145;-29
2022/04/26 07:26:55;;;;;;;10.75;6.78;;;;;;;;;;5073551;28;20037;-29
2022/04/26 07:29:21;;;;;;;12.38;6.97;;;;;;;;;;5073478;28;20121;-29
2022/04/26 07:31:47;;;;;;;12.23;6.68;;;;;;;;;;5073169;28;20036;-28
2022/04/26 07:34:24;;;;;;;9.00;6.57;;;;;;;;;;5073261;28;20040;-30
2022/04/26 07:36:57;;;;;;;10.10;6.90;;;;;;;;;;5073425;28;20045;-29
2022/04/26 07:39:24;;;;;;;9.10;6.53;;;;;;;;;;5072368;28;20048;-29
2022/04/26 07:41:50;;;;;;;9.52;6.40;;;;;;;;;;5073195;28;20498;-28
2022/04/26 07:44:16;;;;;;;7.45;6.20;;;;;;;;;;5072795;28;20033;-28
2022/04/26 07:46:46;;;;;;;10.57;5.60;;;;;;;;;;5072986;28;20041;-28
2022/04/26 07:49:13;;;;;;;9.02;5.85;;;;;;;;;;5072563;28;20421;-29
2022/04/26 07:51:39;;;;;;;8.25;5.72;;;;;;;;;;5073314;28;20097;-29
2022/04/26 07:54:06;;;;;;;13.05;5.90;;;;;;;;;;5072746;28;20033;-29
2022/04/26 07:56:33;;;;;;;8.98;5.47;;;;;;;;;;5073286;28;20059;-30
2022/04/26 07:59:01;;;;;;;8.95;5.13;;;;;;;;;;5072863;28;20121;-29
2022/04/26 08:01:28;;;;;;;6.82;5.50;;;;;;;;;;5072253;28;20083;-29
2022/04/26 08:03:55;;;;;;;7.85;5.28;;;;;;;;;;5072578;28;20464;-29
2022/04/26 08:06:21;;;;;;;10.48;5.10;;;;;;;;;;5071978;28;20059;-29
2022/04/26 08:08:47;;;;;;;12.77;5.22;;;;;;;;;;5072201;28;20398;-29
2022/04/26 08:11:13;;;;;;;6.63;4.95;;;;;;;;;;5072546;28;20466;-30
2022/04/26 08:13:42;;;;;;;8.05;5.28;;;;;;;;;;5072488;28;20414;-29
2022/04/26 08:16:09;;;;;;;6.97;5.20;;;;;;;;;;5072421;28;20252;-29
2022/04/26 08:18:35;;;;;;;6.90;5.15;;;;;;;;;;5071616;28;20502;-31
2022/04/26 08:21:01;;;;;;;7.40;5.35;;;;;;;;;;5071713;28;20048;-30
2022/04/26 08:23:27;;;;;;;10.45;5.38;;;;;;;;;;5072709;28;20122;-31
2022/04/26 08:28:39;;;;;;;10.23;5.65;;;;;;;;;;5071950;28;20040;-30
2022/04/26 08:31:06;;;;;;;8.85;5.20;;;;;;;;;;5071296;28;20047;-29
2022/04/26 08:33:34;;;;;;;8.10;5.00;;;;;;;;;;5072053;28;20037;-30
2022/04/26 08:36:01;;;;;;;8.63;4.97;;;;;;;;;;5071791;28;20090;-30
2022/04/26 08:38:27;;;;;;;5.22;4.65;;;;;;;;;;5072237;28;20044;-32
2022/04/26 08:40:53;;;;;;;5.75;4.60;;;;;;;;;;5071470;28;20036;-30
2022/04/26 08:43:19;;;;;;;6.50;4.68;;;;;;;;;;5071519;28;20048;-31
2022/04/26 08:45:46;;;;;;;9.13;4.88;;;;;;;;;;5071123;28;20454;-29
2022/04/26 08:51:00;;;;;;;6.50;4.43;;;;;;;;;;5072609;28;20040;-28
2022/04/26 08:53:27;;;;;;;5.20;4.13;;;;;;;;;;5072561;28;20037;-28
2022/04/26 08:55:55;;;;;;;6.85;4.07;;;;;;;;;;5072697;28;20041;-27
2022/04/26 08:58:22;;;;;;;5.75;4.25;;;;;;;;;;5072813;28;20459;-27
2022/04/26 09:01:07;;;;;;;7.45;3.78;;;;;;;;;;5072408;28;20045;-27
2022/04/26 09:03:35;;;;;;;5.72;4.20;;;;;;;;;;5072225;28;20123;-27
2022/04/26 09:06:05;;;;;;;11.18;4.65;;;;;;;;;;5071956;28;20052;-28
2022/04/26 09:08:32;;;;;;;8.50;3.90;;;;;;;;;;5072171;28;20132;-26
2022/04/26 09:10:58;;;;;;;6.57;3.83;;;;;;;;;;5072340;28;20486;-28
2022/04/26 09:13:24;;;;;;;6.72;3.70;;;;;;;;;;5072321;28;20037;-27
2022/04/26 09:15:51;;;;;;;7.15;3.95;;;;;;;;;;5072109;28;20060;-27
2022/04/26 09:18:22;;;;;;;8.15;3.60;;;;;;;;;;5071963;28;20509;-28
2022/04/26 09:21:17;;;;;;;6.43;3.38;;;;;;;;;;5071173;28;20040;-27
2022/04/26 09:23:44;;;;;;;7.70;3.85;;;;;;;;;;5050689;28;20083;-28
2022/04/26 09:26:11;;;;;;;4.82;4.03;;;;;;;;;;5071368;28;20479;-27
2022/04/26 09:28:38;;;;;;;6.78;3.72;;;;;;;;;;5071298;28;20033;-27
2022/04/26 09:31:23;;;;;;;7.30;3.58;;;;;;;;;;5071185;28;20111;-27
2022/04/26 09:33:52;;;;;;;5.05;3.55;;;;;;;;;;5071792;28;20036;-27
2022/04/26 09:36:19;;;;;;;9.30;3.78;;;;;;;;;;5071383;28;20436;-27
2022/04/26 09:38:50;;;;;;;6.97;3.90;;;;;;;;;;5071323;28;20083;-27
2022/04/26 09:41:16;;;;;;;6.65;3.47;;;;;;;;;;5071448;28;20072;-28
2022/04/26 09:43:42;;;;;;;8.05;3.78;;;;;;;;;;5071592;28;20398;-28
2022/04/26 09:46:08;;;;;;;4.93;3.92;;;;;;;;;;5070910;28;20052;-26
2022/04/26 09:48:36;;;;;;;7.05;3.30;;;;;;;;;;5071314;28;20115;-30
2022/04/26 09:51:06;;;;;;;6.65;3.78;;;;;;;;;;5070974;28;20068;-26
2022/04/26 09:53:32;;;;;;;5.35;3.70;;;;;;;;;;5051264;28;20093;-28
2022/04/26 09:55:59;;;;;;;6.35;3.60;;;;;;;;;;5051106;28;20441;-26
2022/04/26 09:58:27;;;;;;;4.45;3.38;;;;;;;;;;5051014;28;20048;-26
2022/04/26 10:00:54;;;;;;;5.57;3.85;;;;;;;;;;5051458;28;20051;-26
2022/04/26 10:03:28;;;;;;;6.60;3.67;;;;;;;;;;5053303;28;20060;-26
2022/04/26 10:05:56;;;;;;;7.05;3.50;;;;;;;;;;5051366;28;20049;-26
2022/04/26 10:08:23;;;;;;;7.68;3.85;;;;;;;;;;5051024;28;20044;-26
2022/04/26 10:10:49;;;;;;;5.97;3.63;;;;;;;;;;5066655;28;20497;-27
2022/04/26 10:16:19;;;;;;;5.13;3.58;;;;;;;;;;5053048;28;20182;-27
2022/04/26 10:18:47;;;;;;;5.57;3.35;;;;;;;;;;5050900;28;20045;-27
2022/04/26 10:21:34;;;;;;;5.30;3.60;;;;;;;;;;5051042;28;20037;-28
2022/04/26 10:24:02;;;;;;;7.47;3.50;;;;;;;;;;5038814;28;20502;-27
2022/04/26 10:26:28;;;;;;;3.80;3.20;;;;;;;;;;5071026;28;20123;-28
2022/04/26 10:29:01;;;;;;;8.10;3.90;;;;;;;;;;5071328;28;20487;-29
2022/04/26 10:31:53;;;;;;;4.90;3.50;;;;;;;;;;5071836;28;20036;-29
2022/04/26 10:34:29;;;;;;;4.40;3.25;;;;;;;;;;5066534;28;20072;-30
2022/04/26 10:36:55;;;;;;;5.45;3.38;;;;;;;;;;5071194;28;20075;-28
2022/04/26 10:39:23;;;;;;;4.03;3.20;;;;;;;;;;5071153;28;20123;-29
2022/04/26 10:41:49;;;;;;;4.35;2.83;;;;;;;;;;5072071;28;20048;-28
2022/04/26 10:44:15;;;;;;;4.93;3.30;;;;;;;;;;5074004;28;20032;-28
2022/04/26 10:46:42;;;;;;;3.72;3.38;;;;;;;;;;5074826;28;20118;-29
2022/04/26 10:49:22;;;;;;;5.10;3.45;;;;;;;;;;5074727;28;20516;-28
2022/04/26 10:51:48;;;;;;;5.32;3.40;;;;;;;;;;5054736;28;20045;-29
2022/04/26 10:54:14;;;;;;;8.85;3.83;;;;;;;;;;5054592;28;20076;-27
2022/04/26 10:56:41;;;;;;;6.60;3.53;;;;;;;;;;5054861;28;20045;-28
2022/04/26 10:59:13;;;;;;;7.00;3.70;;;;;;;;;;5054589;28;20514;-28
2022/04/26 11:01:39;;;;;;;5.28;2.67;;;;;;;;;;5054302;28;20103;-28
2022/04/26 11:04:05;;;;;;;4.80;3.13;;;;;;;;;;5054391;28;20045;-28
2022/04/26 11:06:36;;;;;;;4.03;2.83;;;;;;;;;;5053971;28;20098;-28
2022/04/26 11:09:16;;;;;;;5.28;3.42;;;;;;;;;;5036433;28;20067;-29
2022/04/26 11:11:55;;;;;;;5.35;3.60;;;;;;;;;;5054300;28;20037;-28
2022/04/26 11:14:22;;;;;;;4.97;3.53;;;;;;;;;;5054240;28;20111;-29
2022/04/26 11:16:58;;;;;;;5.95;3.65;;;;;;;;;;5053897;28;20050;-29
2022/04/26 11:19:31;;;;;;;7.35;3.08;;;;;;;;;;5053959;28;20490;-29
2022/04/26 11:22:04;;;;;;;4.43;3.35;;;;;;;;;;5053892;28;20049;-28
2022/04/26 11:30:00;;;;;;;5.55;3.20;;;;;;;;;;5074359;28;20063;-27
2022/04/26 11:32:30;;;;;;;4.50;3.05;;;;;;;;;;5056138;28;20390;-27
2022/04/26 11:34:56;;;;;;;3.58;3.20;;;;;;;;;;5073999;28;20040;-29
2022/04/26 11:37:22;;;;;;;4.68;3.25;;;;;;;;;;5073778;28;20556;-28
2022/04/26 11:39:48;;;;;;;4.35;2.88;;;;;;;;;;5073796;28;20036;-28
2022/04/26 11:42:16;;;;;;;5.28;3.08;;;;;;;;;;5073771;28;20040;-28
2022/04/26 11:44:57;;;;;;;3.42;2.80;;;;;;;;;;5073624;28;20037;-28
2022/04/26 11:47:42;;;;;;;4.35;2.78;;;;;;;;;;5073348;28;20124;-29
2022/04/26 11:50:09;;;;;;;5.10;3.40;;;;;;;;;;5073774;28;20405;-29
2022/04/26 11:52:35;;;;;;;4.43;3.03;;;;;;;;;;5073321;28;20072;-29
2022/04/26 11:55:01;;;;;;;3.10;2.78;;;;;;;;;;5073442;28;20041;-28
2022/04/26 11:57:27;;;;;;;3.25;2.90;;;;;;;;;;5073422;28;20040;-29
2022/04/26 11:59:53;;;;;;;4.20;2.60;;;;;;;;;;5073572;28;20059;-29
2022/04/26 12:02:20;;;;;;;3.10;2.88;;;;;;;;;;5055506;28;20049;-28
2022/04/26 12:04:46;;;;;;;3.20;2.60;;;;;;;;;;5073209;28;20052;-28
2022/04/26 12:07:12;;;;;;;3.47;3.00;;;;;;;;;;5073306;28;20052;-29
2022/04/26 12:09:38;;;;;;;3.53;2.92;;;;;;;;;;5073380;28;20045;-31
2022/04/26 12:12:06;;;;;;;3.85;2.67;;;;;;;;;;5073386;28;20115;-28
2022/04/26 12:14:32;;;;;;;4.35;2.50;;;;;;;;;;5073195;28;20040;-29
2022/04/26 12:16:59;;;;;;;4.53;2.80;;;;;;;;;;5072922;28;20306;-30
2022/04/26 12:19:35;;;;;;;3.17;2.70;;;;;;;;;;5073076;28;20526;-28
2022/04/26 12:22:02;;;;;;;3.30;2.70;;;;;;;;;;5072880;28;20123;-28
2022/04/26 12:24:30;;;;;;;6.05;3.05;;;;;;;;;;5072825;28;20383;-28
2022/04/26 12:27:00;;;;;;;3.70;2.38;;;;;;;;;;5072887;28;20509;-28
2022/04/26 12:29:28;;;;;;;4.85;2.58;;;;;;;;;;5072921;28;20055;-28
2022/04/26 12:31:54;;;;;;;3.38;2.55;;;;;;;;;;5072314;28;20045;-30
2022/04/26 12:34:25;;;;;;;5.55;2.78;;;;;;;;;;5054909;28;20190;-28
2022/04/26 12:36:57;;;;;;;4.63;2.58;;;;;;;;;;5072448;28;20059;-28
2022/04/26 12:39:25;;;;;;;4.57;3.08;;;;;;;;;;5071473;28;20097;-28
2022/04/26 12:41:56;;;;;;;3.00;2.70;;;;;;;;;;5053522;28;20051;-30
2022/04/26 12:44:22;;;;;;;4.38;2.75;;;;;;;;;;5071038;28;20129;-28
2022/04/26 12:52:35;;;;;;;4.70;2.72;;;;;;;;;;5071762;28;20549;-29
2022/04/26 12:55:01;;;;;;;3.00;2.60;;;;;;;;;;5053466;28;20049;-29
2022/04/26 12:57:28;;;;;;;3.22;2.47;;;;;;;;;;5071387;28;20536;-28
2022/04/26 12:59:54;;;;;;;4.75;2.63;;;;;;;;;;5071079;28;20045;-28
2022/04/26 13:02:20;;;;;;;3.72;2.65;;;;;;;;;;5070963;28;20051;-28
2022/04/26 13:04:46;;;;;;;4.03;2.70;;;;;;;;;;5070381;28;20127;-28
2022/04/26 13:07:13;;;;;;;4.50;2.47;;;;;;;;;;5071266;28;20128;-26
2022/04/26 13:09:39;;;;;;;4.35;2.70;;;;;;;;;;5052987;28;20044;-29
2022/04/26 13:12:05;;;;;;;3.80;2.25;;;;;;;;;;5071055;28;20511;-28
2022/04/26 13:14:31;;;;;;;6.95;2.72;;;;;;;;;;5071210;28;20036;-30
2022/04/26 13:16:57;;;;;;;4.22;2.53;;;;;;;;;;5070854;28;20068;-29
2022/04/26 13:19:23;;;;;;;4.80;2.67;;;;;;;;;;5071151;28;20159;-28
2022/04/26 13:21:49;;;;;;;4.13;2.88;;;;;;;;;;5070947;28;20123;-28
2022/04/26 13:24:17;;;;;;;6.63;2.40;;;;;;;;;;5071024;28;20063;-29
2022/04/26 13:26:44;;;;;;;3.67;2.13;;;;;;;;;;5070799;28;20048;-28
2022/04/26 13:29:10;;;;;;;3.00;2.30;;;;;;;;;;5070797;28;20395;-28
2022/04/26 13:31:36;;;;;;;4.53;2.60;;;;;;;;;;5071013;28;20482;-29
2022/04/26 13:34:02;;;;;;;3.45;2.70;;;;;;;;;;5071388;28;20043;-28
2022/04/26 13:36:28;;;;;;;3.80;2.50;;;;;;;;;;5071177;28;20072;-28
2022/04/26 13:38:55;;;;;;;3.45;2.63;;;;;;;;;;5053820;28;20090;-30
2022/04/26 13:41:21;;;;;;;2.88;2.42;;;;;;;;;;5071357;28;20040;-29
2022/04/26 13:43:48;;;;;;;4.43;2.75;;;;;;;;;;5071599;28;20040;-29
2022/04/26 13:46:14;;;;;;;3.95;2.50;;;;;;;;;;5052943;28;20101;-29
2022/04/26 13:48:40;;;;;;;4.47;2.50;;;;;;;;;;5071657;28;20543;-31
2022/04/26 13:51:07;;;;;;;3.38;2.67;;;;;;;;;;5071012;28;20075;-29
2022/04/26 13:53:33;;;;;;;3.05;2.53;;;;;;;;;;5071915;28;20066;-28
2022/04/26 13:56:00;;;;;;;3.70;2.40;;;;;;;;;;5071490;28;20365;-29
2022/04/26 13:58:27;;;;;;;3.38;2.63;;;;;;;;;;5071256;28;20044;-29
2022/04/26 14:00:54;;;;;;;7.80;3.08;;;;;;;;;;5058329;28;20041;-29
2022/04/26 14:03:20;;;;;;;3.72;2.63;;;;;;;;;;5051761;28;20052;-28
2022/04/26 14:05:46;;;;;;;4.68;2.60;;;;;;;;;;5051271;28;20116;-29
2022/04/26 14:08:12;;;;;;;5.22;2.70;;;;;;;;;;5051393;28;20029;-29
2022/04/26 14:10:38;;;;;;;4.40;2.90;;;;;;;;;;5060344;28;20501;-28
2022/04/26 14:13:05;;;;;;;3.90;2.80;;;;;;;;;;5071191;28;20135;-29
2022/04/26 14:24:05;;;;;;;2.63;2.35;;;;;;;;;;5025888;28;20044;-29
2022/04/26 14:26:31;;;;;;;3.63;2.60;;;;;;;;;;5070982;28;20489;-29
2022/04/26 14:28:57;;;;;;;3.17;2.20;;;;;;;;;;5071062;28;20370;-29
2022/04/26 14:31:24;;;;;;;3.15;2.22;;;;;;;;;;5071074;28;20115;-29
2022/04/26 14:33:50;;;;;;;3.40;2.22;;;;;;;;;;5070823;28;20043;-29
2022/04/26 14:36:16;;;;;;;3.85;2.42;;;;;;;;;;5070502;28;20045;-29
2022/04/26 14:38:42;;;;;;;3.13;2.67;;;;;;;;;;5070851;28;20194;-30
2022/04/26 14:41:09;;;;;;;4.57;2.75;;;;;;;;;;5070847;28;20036;-31
2022/04/26 14:43:36;;;;;;;4.85;2.00;;;;;;;;;;5070824;28;20051;-28
2022/04/26 14:46:02;;;;;;;3.72;2.22;;;;;;;;;;5071006;28;20055;-28
2022/04/26 14:48:29;;;;;;;2.28;2.05;;;;;;;;;;5071051;28;20047;-27
2022/04/26 14:50:55;;;;;;;2.72;2.00;;;;;;;;;;5071144;28;20045;-27
2022/04/26 14:53:22;;;;;;;5.13;2.38;;;;;;;;;;5071136;28;20161;-26
2022/04/26 14:55:48;;;;;;;3.08;2.13;;;;;;;;;;5070777;28;20037;-28
2022/04/26 14:58:14;;;;;;;3.22;2.30;;;;;;;;;;5070881;28;20040;-28
2022/04/26 15:00:40;;;;;;;5.60;2.35;;;;;;;;;;5071034;28;20040;-27
2022/04/26 15:03:06;;;;;;;3.08;2.30;;;;;;;;;;5071116;28;20063;-28
2022/04/26 15:05:33;;;;;;;3.03;2.10;;;;;;;;;;5065511;28;20424;-31
2022/04/26 15:10:43;;;;;;;3.15;2.45;;;;;;;;;;5069505;28;20036;-31
2022/04/26 15:18:40;;;;;;;3.53;2.00;;;;;;;;;;5069741;28;20041;-31
2022/04/26 15:21:07;;;;;;;3.80;2.42;;;;;;;;;;5069107;28;20044;-29
2022/04/26 15:23:33;;;;;;;4.47;2.50;;;;;;;;;;5070127;28;20494;-34
2022/04/26 15:25:59;;;;;;;2.92;2.10;;;;;;;;;;5069647;28;20072;-33
2022/04/26 15:28:25;;;;;;;3.22;2.10;;;;;;;;;;5072481;28;20044;-32
2022/04/26 15:30:52;;;;;;;4.03;2.13;;;;;;;;;;5072675;28;20402;-30
2022/04/26 15:33:18;;;;;;;2.60;2.25;;;;;;;;;;5073138;28;20194;-30
2022/04/26 15:35:44;;;;;;;2.42;2.22;;;;;;;;;;5072875;28;20119;-30
2022/04/26 15:38:12;;;;;;;5.15;2.67;;;;;;;;;;5072825;28;20039;-30
2022/04/26 15:40:40;;;;;;;3.00;2.13;;;;;;;;;;5073295;28;20044;-31
2022/04/26 15:43:06;;;;;;;2.58;2.38;;;;;;;;;;5071464;28;20173;-33
2022/04/26 15:45:33;;;;;;;3.72;2.38;;;;;;;;;;5073538;28;20129;-29
2022/04/26 15:48:00;;;;;;;3.97;2.40;;;;;;;;;;5066412;28;20049;-31
2022/04/26 15:50:27;;;;;;;2.75;2.30;;;;;;;;;;5072841;28;20066;-32
2022/04/26 15:52:53;;;;;;;2.42;2.22;;;;;;;;;;5072164;28;20036;-30
2022/04/26 15:55:21;;;;;;;4.72;2.75;;;;;;;;;;5072266;28;20044;-32
2022/04/26 15:57:47;;;;;;;5.97;2.80;;;;;;;;;;5065600;28;20047;-32
2022/04/26 16:00:14;;;;;;;6.57;2.95;;;;;;;;;;5068556;28;20044;-29
2022/04/26 16:02:43;;;;;;;3.85;2.65;;;;;;;;;;5070459;28;20080;-31
2022/04/26 16:05:10;;;;;;;3.50;2.60;;;;;;;;;;5068274;28;20098;-31
2022/04/26 16:07:37;;;;;;;5.90;2.88;;;;;;;;;;5070972;28;20090;-30
2022/04/26 16:21:03;;;;;;;5.32;3.10;;;;;;;;;;5070623;28;20048;-31
2022/04/26 16:23:29;;;;;;;4.18;2.88;;;;;;;;;;5071112;28;20094;-31
2022/04/26 16:26:01;;;;;;;3.00;2.67;;;;;;;;;;5071475;28;20137;-31
2022/04/26 16:28:29;;;;;;;6.47;3.15;;;;;;;;;;5071919;28;20112;-29
2022/04/26 16:30:55;;;;;;;6.65;2.72;;;;;;;;;;5071803;28;20089;-30
2022/04/26 16:33:21;;;;;;;3.78;3.30;;;;;;;;;;5071962;28;20482;-31
2022/04/26 16:35:48;;;;;;;5.47;3.00;;;;;;;;;;5072148;28;20124;-29
2022/04/26 16:38:17;;;;;;;6.25;2.90;;;;;;;;;;5070007;28;20041;-29
2022/04/26 16:40:44;;;;;;;4.68;3.22;;;;;;;;;;5069229;28;20494;-33
2022/04/26 16:43:10;;;;;;;4.03;2.90;;;;;;;;;;5070198;28;20516;-31
2022/04/26 16:45:36;;;;;;;6.30;3.15;;;;;;;;;;5070414;28;20048;-31
2022/04/26 16:48:03;;;;;;;5.53;2.83;;;;;;;;;;5070481;28;20490;-29
2022/04/26 16:50:29;;;;;;;3.03;2.72;;;;;;;;;;5068871;28;20042;-32
2022/04/26 16:52:57;;;;;;;4.88;3.25;;;;;;;;;;5071172;28;20518;-30
2022/04/26 16:55:23;;;;;;;3.95;2.88;;;;;;;;;;5071271;28;20439;-31
2022/04/26 16:57:49;;;;;;;4.38;2.90;;;;;;;;;;5070768;28;20406;-33
2022/04/26 17:00:16;;;;;;;4.80;3.03;;;;;;;;;;5067419;28;20402;-28
2022/04/26 17:02:42;;;;;;;4.90;3.17;;;;;;;;;;5061613;28;20436;-32
2022/04/26 17:05:09;;;;;;;6.53;3.40;;;;;;;;;;5043395;28;20237;-32
2022/04/26 17:07:36;;;;;;;3.40;3.00;;;;;;;;;;5062331;28;20158;-31
2022/04/26 17:10:02;;;;;;;5.45;3.00;;;;;;;;;;5059779;28;20481;-29
2022/04/26 17:12:28;;;;;;;4.55;2.95;;;;;;;;;;5067899;28;20484;-29
2022/04/26 17:14:54;;;;;;;4.30;3.42;;;;;;;;;;5041529;28;20371;-30
2022/04/26 17:17:21;;;;;;;4.20;3.05;;;;;;;;;;5057790;28;20041;-31
2022/04/26 17:19:48;;;;;;;3.63;2.70;;;;;;;;;;5058319;28;20032;-26
2022/04/26 17:22:14;;;;;;;5.82;3.50;;;;;;;;;;5070524;28;20051;-30
2022/04/26 17:27:25;;;;;;;5.72;3.22;;;;;;;;;;5066965;28;20128;-28
2022/04/26 17:29:51;;;;;;;5.20;3.10;;;;;;;;;;5066495;28;20097;-29
2022/04/26 17:32:17;;;;;;;5.35;3.13;;;;;;;;;;5062317;28;20059;-30
2022/04/26 17:34:44;;;;;;;5.20;3.10;;;;;;;;;;5043764;28;20067;-31
2022/04/26 17:37:12;;;;;;;5.03;3.25;;;;;;;;;;5058149;28;20044;-29
2022/04/26 17:39:39;;;;;;;3.05;2.55;;;;;;;;;;5035981;28;20604;-29
2022/04/26 17:42:06;;;;;;;5.90;3.40;;;;;;;;;;5060034;28;20441;-29
2022/04/26 17:44:34;;;;;;;7.28;3.47;;;;;;;;;;5054866;28;20036;-28
2022/04/26 17:47:00;;;;;;;4.85;3.25;;;;;;;;;;5050622;28;20422;-28
2022/04/26 17:49:27;;;;;;;5.57;3.35;;;;;;;;;;5062821;28;20040;-28
2022/04/26 17:51:53;;;;;;;6.78;3.50;;;;;;;;;;5070325;28;20036;-28
2022/04/26 17:57:04;;;;;;;4.47;3.22;;;;;;;;;;5069689;28;20044;-27
2022/04/26 17:59:30;;;;;;;6.13;3.60;;;;;;;;;;5070325;28;20448;-27
2022/04/26 18:01:57;;;;;;;4.80;3.50;;;;;;;;;;5069927;28;20040;-29
2022/04/26 18:04:23;;;;;;;4.93;3.42;;;;;;;;;;5069769;28;20044;-28
2022/04/26 18:06:49;;;;;;;4.10;3.35;;;;;;;;;;5065064;28;20044;-28
2022/04/26 18:09:15;;;;;;;5.28;3.33;;;;;;;;;;5064445;28;20497;-28
2022/04/26 18:11:41;;;;;;;4.93;3.33;;;;;;;;;;5070360;28;20094;-29
2022/04/26 18:14:08;;;;;;;5.10;3.47;;;;;;;;;;5070416;28;20037;-29
2022/04/26 18:16:34;;;;;;;5.30;3.38;;;;;;;;;;5068695;28;20090;-30
2022/04/26 18:19:04;;;;;;;6.00;4.03;;;;;;;;;;5066850;28;20389;-28
2022/04/26 18:21:30;;;;;;;5.78;3.70;;;;;;;;;;5035284;28;20040;-27
2022/04/26 18:23:57;;;;;;;7.80;3.60;;;;;;;;;;5057661;28;20044;-29
2022/04/26 18:26:23;;;;;;;6.68;3.47;;;;;;;;;;5066143;28;20040;-27
2022/04/26 18:28:51;;;;;;;5.63;3.72;;;;;;;;;;5060727;28;20048;-27
2022/04/26 18:31:19;;;;;;;4.93;3.30;;;;;;;;;;5061539;28;20041;-27
2022/04/26 18:33:45;;;;;;;6.72;3.63;;;;;;;;;;5058479;28;20040;-27
2022/04/26 18:36:12;;;;;;;5.22;3.92;;;;;;;;;;5058596;28;20033;-26
2022/04/26 18:38:39;;;;;;;5.75;3.10;;;;;;;;;;5058055;28;20041;-28
2022/04/26 18:41:08;;;;;;;6.85;4.22;;;;;;;;;;5062296;28;20033;-27
2022/04/26 18:43:34;;;;;;;4.80;3.90;;;;;;;;;;5064226;28;20387;-26
2022/04/26 18:46:00;;;;;;;6.68;3.83;;;;;;;;;;5065841;28;20059;-26
2022/04/26 18:48:28;;;;;;;5.63;3.80;;;;;;;;;;5069833;28;20441;-27
2022/04/26 18:50:54;;;;;;;4.53;3.80;;;;;;;;;;5070159;28;20040;-27
2022/04/26 18:53:20;;;;;;;5.47;4.13;;;;;;;;;;5070005;28;20047;-30
2022/04/26 18:55:47;;;;;;;6.15;4.18;;;;;;;;;;5070945;28;20048;-26
2022/04/26 18:58:13;;;;;;;6.32;4.03;;;;;;;;;;5052995;28;20049;-27
2022/04/26 19:00:39;;;;;;;5.25;3.85;;;;;;;;;;5063869;28;20117;-30
2022/04/26 19:03:05;;;;;;;6.82;4.32;;;;;;;;;;5064162;28;20466;-28
2022/04/26 19:05:32;;;;;;;7.03;4.38;;;;;;;;;;5073762;28;20079;-27
2022/04/26 19:07:58;;;;;;;7.88;4.05;;;;;;;;;;5074603;28;20040;-26
2022/04/26 19:13:09;;;;;;;5.28;3.47;;;;;;;;;;5064814;28;20041;-29